sensor_id;sensor_type;location;lat;lon;timestamp;P1;durP1;ratioP1;P2;durP2;ratioP2
23270;SDS011;11804;51.118;17.058;2023-05-14T00:00:53;7.97;;;4.70;;
23270;SDS011;11804;51.118;17.058;2023-05-14T00:03:21;9.93;;;5.67;;
23270;SDS011;11804;51.118;17.058;2023-05-14T00:05:49;11.67;;;6.10;;
23270;SDS011;11804;51.118;17.058;2023-05-14T00:08:17;9.23;;;6.03;;
23270;SDS011;11804;51.118;17.058;2023-05-14T00:10:44;11.07;;;5.70;;
23270;SDS011;11804;51.118;17.058;2023-05-14T00:13:12;8.83;;;5.27;;
23270;SDS011;11804;51.118;17.058;2023-05-14T00:15:40;8.73;;;5.07;;
23270;SDS011;11804;51.118;17.058;2023-05-14T00:18:07;9.07;;;5.10;;
23270;SDS011;11804;51.118;17.058;2023-05-14T00:20:37;9.83;;;5.03;;
23270;SDS011;11804;51.118;17.058;2023-05-14T00:23:04;9.20;;;5.00;;
23270;SDS011;11804;51.118;17.058;2023-05-14T00:25:32;8.10;;;5.00;;
23270;SDS011;11804;51.118;17.058;2023-05-14T00:28:00;9.33;;;5.53;;
23270;SDS011;11804;51.118;17.058;2023-05-14T00:30:31;7.87;;;5.03;;
23270;SDS011;11804;51.118;17.058;2023-05-14T00:32:58;9.37;;;5.47;;
23270;SDS011;11804;51.118;17.058;2023-05-14T00:35:26;9.10;;;5.20;;
23270;SDS011;11804;51.118;17.058;2023-05-14T00:37:53;8.17;;;5.10;;
23270;SDS011;11804;51.118;17.058;2023-05-14T00:40:22;9.43;;;5.47;;
23270;SDS011;11804;51.118;17.058;2023-05-14T00:42:52;10.03;;;5.50;;
23270;SDS011;11804;51.118;17.058;2023-05-14T00:45:20;9.43;;;5.47;;
23270;SDS011;11804;51.118;17.058;2023-05-14T00:47:48;9.17;;;5.53;;
23270;SDS011;11804;51.118;17.058;2023-05-14T00:50:17;8.57;;;5.50;;
23270;SDS011;11804;51.118;17.058;2023-05-14T00:52:46;7.83;;;4.50;;
23270;SDS011;11804;51.118;17.058;2023-05-14T00:55:14;11.40;;;5.17;;
23270;SDS011;11804;51.118;17.058;2023-05-14T00:57:42;8.43;;;5.43;;
23270;SDS011;11804;51.118;17.058;2023-05-14T01:00:10;9.67;;;5.20;;
23270;SDS011;11804;51.118;17.058;2023-05-14T01:02:38;7.83;;;4.87;;
23270;SDS011;11804;51.118;17.058;2023-05-14T01:05:06;10.23;;;5.27;;
23270;SDS011;11804;51.118;17.058;2023-05-14T01:10:23;8.23;;;4.80;;
23270;SDS011;11804;51.118;17.058;2023-05-14T01:13:12;7.97;;;4.80;;
23270;SDS011;11804;51.118;17.058;2023-05-14T01:15:43;7.90;;;4.87;;
23270;SDS011;11804;51.118;17.058;2023-05-14T01:18:12;7.73;;;5.23;;
23270;SDS011;11804;51.118;17.058;2023-05-14T01:20:42;7.87;;;4.93;;
23270;SDS011;11804;51.118;17.058;2023-05-14T01:23:12;8.17;;;4.93;;
23270;SDS011;11804;51.118;17.058;2023-05-14T01:25:41;8.03;;;4.60;;
23270;SDS011;11804;51.118;17.058;2023-05-14T01:28:20;6.93;;;4.50;;
23270;SDS011;11804;51.118;17.058;2023-05-14T01:33:18;6.07;;;4.40;;
23270;SDS011;11804;51.118;17.058;2023-05-14T01:35:47;6.43;;;4.47;;
23270;SDS011;11804;51.118;17.058;2023-05-14T01:38:18;7.60;;;4.70;;
23270;SDS011;11804;51.118;17.058;2023-05-14T01:40:47;7.30;;;4.90;;
23270;SDS011;11804;51.118;17.058;2023-05-14T01:43:16;6.13;;;4.40;;
23270;SDS011;11804;51.118;17.058;2023-05-14T01:45:44;5.23;;;4.13;;
23270;SDS011;11804;51.118;17.058;2023-05-14T01:48:13;7.87;;;4.80;;
23270;SDS011;11804;51.118;17.058;2023-05-14T01:50:41;7.60;;;4.43;;
23270;SDS011;11804;51.118;17.058;2023-05-14T01:53:10;8.37;;;4.53;;
23270;SDS011;11804;51.118;17.058;2023-05-14T01:55:38;7.30;;;4.27;;
23270;SDS011;11804;51.118;17.058;2023-05-14T01:58:05;7.73;;;4.57;;
23270;SDS011;11804;51.118;17.058;2023-05-14T02:00:33;8.00;;;4.73;;
23270;SDS011;11804;51.118;17.058;2023-05-14T02:03:01;7.77;;;4.20;;
23270;SDS011;11804;51.118;17.058;2023-05-14T02:05:29;7.37;;;4.40;;
23270;SDS011;11804;51.118;17.058;2023-05-14T02:07:56;8.13;;;4.80;;
23270;SDS011;11804;51.118;17.058;2023-05-14T02:10:24;6.63;;;4.27;;
23270;SDS011;11804;51.118;17.058;2023-05-14T02:12:51;7.63;;;4.30;;
23270;SDS011;11804;51.118;17.058;2023-05-14T02:15:19;7.40;;;4.37;;
23270;SDS011;11804;51.118;17.058;2023-05-14T02:17:46;7.97;;;4.57;;
23270;SDS011;11804;51.118;17.058;2023-05-14T02:20:15;6.33;;;3.97;;
23270;SDS011;11804;51.118;17.058;2023-05-14T02:22:42;6.70;;;4.00;;
23270;SDS011;11804;51.118;17.058;2023-05-14T02:25:11;6.50;;;4.47;;
23270;SDS011;11804;51.118;17.058;2023-05-14T02:27:38;6.23;;;3.50;;
23270;SDS011;11804;51.118;17.058;2023-05-14T02:30:07;5.77;;;4.17;;
23270;SDS011;11804;51.118;17.058;2023-05-14T02:32:35;6.93;;;3.90;;
23270;SDS011;11804;51.118;17.058;2023-05-14T02:35:03;7.00;;;3.70;;
23270;SDS011;11804;51.118;17.058;2023-05-14T02:37:31;6.20;;;4.03;;
23270;SDS011;11804;51.118;17.058;2023-05-14T02:40:01;5.53;;;3.53;;
23270;SDS011;11804;51.118;17.058;2023-05-14T02:42:29;7.73;;;3.83;;
23270;SDS011;11804;51.118;17.058;2023-05-14T02:44:57;7.20;;;4.67;;
23270;SDS011;11804;51.118;17.058;2023-05-14T02:47:25;6.07;;;4.27;;
23270;SDS011;11804;51.118;17.058;2023-05-14T02:49:53;7.97;;;4.63;;
23270;SDS011;11804;51.118;17.058;2023-05-14T02:52:21;7.97;;;4.33;;
23270;SDS011;11804;51.118;17.058;2023-05-14T02:54:48;5.80;;;4.07;;
23270;SDS011;11804;51.118;17.058;2023-05-14T02:57:16;8.97;;;5.20;;
23270;SDS011;11804;51.118;17.058;2023-05-14T02:59:43;7.07;;;5.07;;
23270;SDS011;11804;51.118;17.058;2023-05-14T03:02:11;6.60;;;4.77;;
23270;SDS011;11804;51.118;17.058;2023-05-14T03:04:39;5.90;;;4.20;;
23270;SDS011;11804;51.118;17.058;2023-05-14T03:07:06;7.57;;;4.40;;
23270;SDS011;11804;51.118;17.058;2023-05-14T03:09:34;9.33;;;5.23;;
23270;SDS011;11804;51.118;17.058;2023-05-14T03:12:01;5.63;;;4.17;;
23270;SDS011;11804;51.118;17.058;2023-05-14T03:14:29;6.53;;;3.83;;
23270;SDS011;11804;51.118;17.058;2023-05-14T03:17:00;7.83;;;4.27;;
23270;SDS011;11804;51.118;17.058;2023-05-14T03:19:28;6.87;;;4.40;;
23270;SDS011;11804;51.118;17.058;2023-05-14T03:21:56;8.27;;;4.57;;
23270;SDS011;11804;51.118;17.058;2023-05-14T03:24:24;5.57;;;3.97;;
23270;SDS011;11804;51.118;17.058;2023-05-14T03:26:51;7.13;;;4.40;;
23270;SDS011;11804;51.118;17.058;2023-05-14T03:29:19;7.77;;;4.30;;
23270;SDS011;11804;51.118;17.058;2023-05-14T03:31:46;6.23;;;4.07;;
23270;SDS011;11804;51.118;17.058;2023-05-14T03:34:15;10.80;;;4.40;;
23270;SDS011;11804;51.118;17.058;2023-05-14T03:36:43;5.50;;;4.03;;
23270;SDS011;11804;51.118;17.058;2023-05-14T03:39:10;8.67;;;4.67;;
23270;SDS011;11804;51.118;17.058;2023-05-14T03:41:41;6.77;;;4.30;;
23270;SDS011;11804;51.118;17.058;2023-05-14T03:44:08;6.70;;;4.53;;
23270;SDS011;11804;51.118;17.058;2023-05-14T03:46:36;15.03;;;5.20;;
23270;SDS011;11804;51.118;17.058;2023-05-14T03:49:04;6.47;;;4.60;;
23270;SDS011;11804;51.118;17.058;2023-05-14T03:51:33;7.50;;;4.67;;
23270;SDS011;11804;51.118;17.058;2023-05-14T03:54:02;7.90;;;4.27;;
23270;SDS011;11804;51.118;17.058;2023-05-14T03:56:30;7.10;;;4.07;;
23270;SDS011;11804;51.118;17.058;2023-05-14T03:59:00;9.97;;;5.10;;
23270;SDS011;11804;51.118;17.058;2023-05-14T04:01:28;6.50;;;4.30;;
23270;SDS011;11804;51.118;17.058;2023-05-14T04:03:57;7.33;;;4.87;;
23270;SDS011;11804;51.118;17.058;2023-05-14T04:06:25;7.93;;;4.27;;
23270;SDS011;11804;51.118;17.058;2023-05-14T04:08:52;8.70;;;4.43;;
23270;SDS011;11804;51.118;17.058;2023-05-14T04:11:20;7.57;;;4.57;;
23270;SDS011;11804;51.118;17.058;2023-05-14T04:13:47;7.23;;;4.43;;
23270;SDS011;11804;51.118;17.058;2023-05-14T04:16:15;9.07;;;4.50;;
23270;SDS011;11804;51.118;17.058;2023-05-14T04:18:43;6.73;;;4.63;;
23270;SDS011;11804;51.118;17.058;2023-05-14T04:21:10;6.73;;;4.53;;
23270;SDS011;11804;51.118;17.058;2023-05-14T04:23:38;6.17;;;4.17;;
23270;SDS011;11804;51.118;17.058;2023-05-14T04:26:06;8.70;;;5.17;;
23270;SDS011;11804;51.118;17.058;2023-05-14T04:28:33;7.50;;;5.03;;
23270;SDS011;11804;51.118;17.058;2023-05-14T04:31:01;10.37;;;5.07;;
23270;SDS011;11804;51.118;17.058;2023-05-14T04:33:29;8.63;;;5.00;;
23270;SDS011;11804;51.118;17.058;2023-05-14T04:35:56;7.37;;;4.63;;
23270;SDS011;11804;51.118;17.058;2023-05-14T04:38:24;8.27;;;4.70;;
23270;SDS011;11804;51.118;17.058;2023-05-14T04:40:52;7.77;;;4.80;;
23270;SDS011;11804;51.118;17.058;2023-05-14T04:43:20;8.80;;;5.13;;
23270;SDS011;11804;51.118;17.058;2023-05-14T04:45:48;6.03;;;4.50;;
23270;SDS011;11804;51.118;17.058;2023-05-14T04:48:17;9.17;;;5.57;;
23270;SDS011;11804;51.118;17.058;2023-05-14T04:50:44;8.90;;;4.87;;
23270;SDS011;11804;51.118;17.058;2023-05-14T04:53:12;8.70;;;5.20;;
23270;SDS011;11804;51.118;17.058;2023-05-14T04:55:44;7.80;;;4.97;;
23270;SDS011;11804;51.118;17.058;2023-05-14T04:58:12;7.57;;;4.47;;
23270;SDS011;11804;51.118;17.058;2023-05-14T05:00:39;6.50;;;4.20;;
23270;SDS011;11804;51.118;17.058;2023-05-14T05:03:07;7.17;;;4.50;;
23270;SDS011;11804;51.118;17.058;2023-05-14T05:05:35;6.97;;;4.80;;
23270;SDS011;11804;51.118;17.058;2023-05-14T05:08:02;6.63;;;4.57;;
23270;SDS011;11804;51.118;17.058;2023-05-14T05:10:30;5.93;;;4.77;;
23270;SDS011;11804;51.118;17.058;2023-05-14T05:12:58;6.40;;;4.30;;
23270;SDS011;11804;51.118;17.058;2023-05-14T05:15:26;9.57;;;5.17;;
23270;SDS011;11804;51.118;17.058;2023-05-14T05:17:54;7.85;;;4.42;;
23270;SDS011;11804;51.118;17.058;2023-05-14T05:20:21;8.30;;;4.97;;
23270;SDS011;11804;51.118;17.058;2023-05-14T05:22:50;6.97;;;4.60;;
23270;SDS011;11804;51.118;17.058;2023-05-14T05:25:17;6.83;;;4.40;;
23270;SDS011;11804;51.118;17.058;2023-05-14T05:27:47;6.83;;;4.73;;
23270;SDS011;11804;51.118;17.058;2023-05-14T05:30:14;7.47;;;4.60;;
23270;SDS011;11804;51.118;17.058;2023-05-14T05:32:42;7.57;;;5.00;;
23270;SDS011;11804;51.118;17.058;2023-05-14T05:35:10;7.33;;;4.53;;
23270;SDS011;11804;51.118;17.058;2023-05-14T05:37:37;7.13;;;4.60;;
23270;SDS011;11804;51.118;17.058;2023-05-14T05:40:05;7.97;;;4.87;;
23270;SDS011;11804;51.118;17.058;2023-05-14T05:42:35;7.73;;;4.97;;
23270;SDS011;11804;51.118;17.058;2023-05-14T05:45:03;7.30;;;4.90;;
23270;SDS011;11804;51.118;17.058;2023-05-14T05:47:31;6.50;;;4.47;;
23270;SDS011;11804;51.118;17.058;2023-05-14T05:49:59;6.47;;;4.33;;
23270;SDS011;11804;51.118;17.058;2023-05-14T05:52:26;7.03;;;4.23;;
23270;SDS011;11804;51.118;17.058;2023-05-14T05:54:54;6.87;;;4.60;;
23270;SDS011;11804;51.118;17.058;2023-05-14T05:57:22;9.30;;;4.40;;
23270;SDS011;11804;51.118;17.058;2023-05-14T05:59:51;6.63;;;4.40;;
23270;SDS011;11804;51.118;17.058;2023-05-14T06:02:18;7.17;;;4.40;;
23270;SDS011;11804;51.118;17.058;2023-05-14T06:04:46;7.00;;;4.80;;
23270;SDS011;11804;51.118;17.058;2023-05-14T06:07:14;5.70;;;4.00;;
23270;SDS011;11804;51.118;17.058;2023-05-14T06:09:41;5.97;;;4.13;;
23270;SDS011;11804;51.118;17.058;2023-05-14T06:12:09;8.17;;;4.47;;
23270;SDS011;11804;51.118;17.058;2023-05-14T06:14:37;7.70;;;4.37;;
23270;SDS011;11804;51.118;17.058;2023-05-14T06:17:04;5.83;;;4.30;;
23270;SDS011;11804;51.118;17.058;2023-05-14T06:19:32;7.53;;;4.93;;
23270;SDS011;11804;51.118;17.058;2023-05-14T06:21:59;8.47;;;4.73;;
23270;SDS011;11804;51.118;17.058;2023-05-14T06:24:28;7.17;;;4.53;;
23270;SDS011;11804;51.118;17.058;2023-05-14T06:26:55;6.17;;;4.40;;
23270;SDS011;11804;51.118;17.058;2023-05-14T06:29:23;5.90;;;4.33;;
23270;SDS011;11804;51.118;17.058;2023-05-14T06:31:51;8.13;;;4.20;;
23270;SDS011;11804;51.118;17.058;2023-05-14T06:34:19;6.43;;;4.57;;
23270;SDS011;11804;51.118;17.058;2023-05-14T06:36:46;6.07;;;4.27;;
23270;SDS011;11804;51.118;17.058;2023-05-14T06:39:14;6.80;;;4.73;;
23270;SDS011;11804;51.118;17.058;2023-05-14T06:41:41;7.83;;;4.10;;
23270;SDS011;11804;51.118;17.058;2023-05-14T06:44:09;7.53;;;4.83;;
23270;SDS011;11804;51.118;17.058;2023-05-14T06:46:37;7.47;;;4.67;;
23270;SDS011;11804;51.118;17.058;2023-05-14T06:49:04;7.47;;;4.87;;
23270;SDS011;11804;51.118;17.058;2023-05-14T06:51:32;8.35;;;4.92;;
23270;SDS011;11804;51.118;17.058;2023-05-14T06:53:59;5.65;;;4.05;;
23270;SDS011;11804;51.118;17.058;2023-05-14T06:56:27;7.17;;;4.90;;
23270;SDS011;11804;51.118;17.058;2023-05-14T06:58:55;5.35;;;4.03;;
23270;SDS011;11804;51.118;17.058;2023-05-14T07:01:22;6.90;;;4.08;;
23270;SDS011;11804;51.118;17.058;2023-05-14T07:03:50;5.20;;;3.80;;
23270;SDS011;11804;51.118;17.058;2023-05-14T07:06:18;4.35;;;3.40;;
23270;SDS011;11804;51.118;17.058;2023-05-14T07:08:45;5.95;;;3.98;;
23270;SDS011;11804;51.118;17.058;2023-05-14T07:11:13;6.00;;;3.47;;
23270;SDS011;11804;51.118;17.058;2023-05-14T07:13:41;4.20;;;3.15;;
23270;SDS011;11804;51.118;17.058;2023-05-14T07:16:09;4.83;;;3.37;;
23270;SDS011;11804;51.118;17.058;2023-05-14T07:18:36;4.70;;;3.45;;
23270;SDS011;11804;51.118;17.058;2023-05-14T07:21:05;6.03;;;2.95;;
23270;SDS011;11804;51.118;17.058;2023-05-14T07:23:32;3.72;;;2.60;;
23270;SDS011;11804;51.118;17.058;2023-05-14T07:26:02;3.47;;;2.70;;
23270;SDS011;11804;51.118;17.058;2023-05-14T07:28:31;3.42;;;2.20;;
23270;SDS011;11804;51.118;17.058;2023-05-14T07:30:59;2.77;;;2.10;;
23270;SDS011;11804;51.118;17.058;2023-05-14T07:33:27;2.85;;;2.08;;
23270;SDS011;11804;51.118;17.058;2023-05-14T07:35:54;6.17;;;2.10;;
23270;SDS011;11804;51.118;17.058;2023-05-14T07:38:22;2.55;;;1.80;;
23270;SDS011;11804;51.118;17.058;2023-05-14T07:40:50;3.85;;;1.90;;
23270;SDS011;11804;51.118;17.058;2023-05-14T07:43:17;2.33;;;1.50;;
23270;SDS011;11804;51.118;17.058;2023-05-14T07:45:45;1.30;;;1.12;;
23270;SDS011;11804;51.118;17.058;2023-05-14T07:48:12;2.00;;;1.40;;
23270;SDS011;11804;51.118;17.058;2023-05-14T07:50:40;1.20;;;1.07;;
23270;SDS011;11804;51.118;17.058;2023-05-14T07:53:08;1.30;;;1.00;;
23270;SDS011;11804;51.118;17.058;2023-05-14T07:55:35;1.80;;;1.20;;
23270;SDS011;11804;51.118;17.058;2023-05-14T07:58:03;1.75;;;1.62;;
23270;SDS011;11804;51.118;17.058;2023-05-14T08:00:31;2.22;;;1.20;;
23270;SDS011;11804;51.118;17.058;2023-05-14T08:02:59;2.22;;;1.40;;
23270;SDS011;11804;51.118;17.058;2023-05-14T08:05:26;1.98;;;1.50;;
23270;SDS011;11804;51.118;17.058;2023-05-14T08:07:54;1.82;;;1.42;;
23270;SDS011;11804;51.118;17.058;2023-05-14T08:10:23;1.67;;;1.30;;
23270;SDS011;11804;51.118;17.058;2023-05-14T08:12:51;1.87;;;1.52;;
23270;SDS011;11804;51.118;17.058;2023-05-14T08:15:19;2.02;;;1.00;;
23270;SDS011;11804;51.118;17.058;2023-05-14T08:17:46;2.50;;;1.07;;
23270;SDS011;11804;51.118;17.058;2023-05-14T08:20:14;4.10;;;1.35;;
23270;SDS011;11804;51.118;17.058;2023-05-14T08:22:42;1.77;;;1.30;;
23270;SDS011;11804;51.118;17.058;2023-05-14T08:25:10;1.17;;;1.07;;
23270;SDS011;11804;51.118;17.058;2023-05-14T08:27:37;1.50;;;1.15;;
23270;SDS011;11804;51.118;17.058;2023-05-14T08:30:07;1.82;;;1.10;;
23270;SDS011;11804;51.118;17.058;2023-05-14T08:32:34;1.30;;;1.00;;
23270;SDS011;11804;51.118;17.058;2023-05-14T08:35:03;1.45;;;1.20;;
23270;SDS011;11804;51.118;17.058;2023-05-14T08:37:31;1.90;;;0.98;;
23270;SDS011;11804;51.118;17.058;2023-05-14T08:39:59;1.05;;;0.95;;
23270;SDS011;11804;51.118;17.058;2023-05-14T08:42:26;2.20;;;1.27;;
23270;SDS011;11804;51.118;17.058;2023-05-14T08:45:01;1.00;;;0.90;;
23270;SDS011;11804;51.118;17.058;2023-05-14T08:47:31;1.20;;;1.10;;
23270;SDS011;11804;51.118;17.058;2023-05-14T08:50:00;2.40;;;0.90;;
23270;SDS011;11804;51.118;17.058;2023-05-14T08:52:30;0.80;;;0.80;;
23270;SDS011;11804;51.118;17.058;2023-05-14T08:54:58;1.00;;;0.90;;
23270;SDS011;11804;51.118;17.058;2023-05-14T08:57:33;1.40;;;0.90;;
23270;SDS011;11804;51.118;17.058;2023-05-14T09:00:02;0.78;;;0.70;;
23270;SDS011;11804;51.118;17.058;2023-05-14T09:02:33;1.60;;;1.00;;
23270;SDS011;11804;51.118;17.058;2023-05-14T09:05:01;2.00;;;1.10;;
23270;SDS011;11804;51.118;17.058;2023-05-14T09:07:29;1.12;;;0.93;;
23270;SDS011;11804;51.118;17.058;2023-05-14T09:09:57;1.07;;;0.90;;
23270;SDS011;11804;51.118;17.058;2023-05-14T09:12:27;1.00;;;0.80;;
23270;SDS011;11804;51.118;17.058;2023-05-14T09:14:55;1.65;;;1.07;;
23270;SDS011;11804;51.118;17.058;2023-05-14T09:17:24;1.47;;;1.15;;
23270;SDS011;11804;51.118;17.058;2023-05-14T09:19:52;0.85;;;0.72;;
23270;SDS011;11804;51.118;17.058;2023-05-14T09:22:20;1.27;;;0.95;;
23270;SDS011;11804;51.118;17.058;2023-05-14T09:25:05;1.10;;;0.93;;
23270;SDS011;11804;51.118;17.058;2023-05-14T09:27:31;1.47;;;1.05;;
23270;SDS011;11804;51.118;17.058;2023-05-14T09:30:06;1.72;;;1.30;;
23270;SDS011;11804;51.118;17.058;2023-05-14T09:32:36;1.27;;;1.10;;
23270;SDS011;11804;51.118;17.058;2023-05-14T09:35:23;1.37;;;0.80;;
23270;SDS011;11804;51.118;17.058;2023-05-14T09:37:51;1.12;;;0.90;;
23270;SDS011;11804;51.118;17.058;2023-05-14T09:40:21;0.80;;;0.70;;
23270;SDS011;11804;51.118;17.058;2023-05-14T09:42:49;1.00;;;0.90;;
23270;SDS011;11804;51.118;17.058;2023-05-14T09:45:17;2.00;;;0.80;;
23270;SDS011;11804;51.118;17.058;2023-05-14T09:47:45;2.20;;;1.17;;
23270;SDS011;11804;51.118;17.058;2023-05-14T09:50:12;1.37;;;1.20;;
23270;SDS011;11804;51.118;17.058;2023-05-14T09:52:41;1.00;;;0.90;;
23270;SDS011;11804;51.118;17.058;2023-05-14T09:55:08;0.88;;;0.80;;
23270;SDS011;11804;51.118;17.058;2023-05-14T09:57:41;0.90;;;0.90;;
23270;SDS011;11804;51.118;17.058;2023-05-14T10:00:06;1.22;;;0.93;;
23270;SDS011;11804;51.118;17.058;2023-05-14T10:02:36;1.15;;;0.80;;
23270;SDS011;11804;51.118;17.058;2023-05-14T10:05:06;1.45;;;1.10;;
23270;SDS011;11804;51.118;17.058;2023-05-14T10:07:38;1.45;;;1.00;;
23270;SDS011;11804;51.118;17.058;2023-05-14T10:10:09;1.07;;;0.93;;
23270;SDS011;11804;51.118;17.058;2023-05-14T10:12:39;0.95;;;0.80;;
23270;SDS011;11804;51.118;17.058;2023-05-14T10:15:17;1.50;;;1.17;;
23270;SDS011;11804;51.118;17.058;2023-05-14T10:17:47;1.22;;;1.00;;
23270;SDS011;11804;51.118;17.058;2023-05-14T10:20:17;1.10;;;0.80;;
23270;SDS011;11804;51.118;17.058;2023-05-14T10:22:46;1.92;;;0.90;;
23270;SDS011;11804;51.118;17.058;2023-05-14T10:25:14;0.95;;;0.70;;
23270;SDS011;11804;51.118;17.058;2023-05-14T10:27:42;1.82;;;0.90;;
23270;SDS011;11804;51.118;17.058;2023-05-14T10:30:10;3.20;;;1.15;;
23270;SDS011;11804;51.118;17.058;2023-05-14T10:32:38;1.35;;;1.05;;
23270;SDS011;11804;51.118;17.058;2023-05-14T10:35:19;1.20;;;0.95;;
23270;SDS011;11804;51.118;17.058;2023-05-14T10:37:45;1.40;;;1.00;;
23270;SDS011;11804;51.118;17.058;2023-05-14T10:40:13;1.50;;;1.10;;
23270;SDS011;11804;51.118;17.058;2023-05-14T10:42:43;1.15;;;0.85;;
23270;SDS011;11804;51.118;17.058;2023-05-14T10:45:13;1.75;;;1.17;;
23270;SDS011;11804;51.118;17.058;2023-05-14T10:47:41;2.83;;;0.88;;
23270;SDS011;11804;51.118;17.058;2023-05-14T10:50:14;1.82;;;1.20;;
23270;SDS011;11804;51.118;17.058;2023-05-14T10:52:42;1.45;;;1.07;;
23270;SDS011;11804;51.118;17.058;2023-05-14T10:55:12;1.12;;;1.00;;
23270;SDS011;11804;51.118;17.058;2023-05-14T10:57:41;1.37;;;1.25;;
23270;SDS011;11804;51.118;17.058;2023-05-14T11:00:11;1.32;;;0.85;;
23270;SDS011;11804;51.118;17.058;2023-05-14T11:02:40;1.35;;;1.00;;
23270;SDS011;11804;51.118;17.058;2023-05-14T11:05:14;1.50;;;1.10;;
23270;SDS011;11804;51.118;17.058;2023-05-14T11:07:41;2.60;;;1.12;;
23270;SDS011;11804;51.118;17.058;2023-05-14T11:10:11;1.10;;;1.00;;
23270;SDS011;11804;51.118;17.058;2023-05-14T11:12:41;1.05;;;0.90;;
23270;SDS011;11804;51.118;17.058;2023-05-14T11:15:10;1.20;;;1.10;;
23270;SDS011;11804;51.118;17.058;2023-05-14T11:17:40;1.00;;;0.90;;
23270;SDS011;11804;51.118;17.058;2023-05-14T11:20:09;1.85;;;1.25;;
23270;SDS011;11804;51.118;17.058;2023-05-14T11:22:38;1.32;;;0.98;;
23270;SDS011;11804;51.118;17.058;2023-05-14T11:25:07;2.10;;;1.20;;
23270;SDS011;11804;51.118;17.058;2023-05-14T11:27:38;1.20;;;1.10;;
23270;SDS011;11804;51.118;17.058;2023-05-14T11:30:15;2.22;;;1.72;;
23270;SDS011;11804;51.118;17.058;2023-05-14T11:32:44;1.25;;;0.98;;
23270;SDS011;11804;51.118;17.058;2023-05-14T11:35:13;2.67;;;1.10;;
23270;SDS011;11804;51.118;17.058;2023-05-14T11:37:41;1.30;;;1.20;;
23270;SDS011;11804;51.118;17.058;2023-05-14T11:40:14;1.65;;;1.30;;
23270;SDS011;11804;51.118;17.058;2023-05-14T11:42:44;1.30;;;0.90;;
23270;SDS011;11804;51.118;17.058;2023-05-14T11:45:12;1.80;;;1.10;;
23270;SDS011;11804;51.118;17.058;2023-05-14T11:47:41;1.65;;;1.12;;
23270;SDS011;11804;51.118;17.058;2023-05-14T11:50:09;3.17;;;1.00;;
23270;SDS011;11804;51.118;17.058;2023-05-14T11:52:40;1.57;;;1.27;;
23270;SDS011;11804;51.118;17.058;2023-05-14T11:55:13;1.72;;;1.47;;
23270;SDS011;11804;51.118;17.058;2023-05-14T11:57:37;2.10;;;1.15;;
23270;SDS011;11804;51.118;17.058;2023-05-14T12:00:07;2.00;;;1.30;;
23270;SDS011;11804;51.118;17.058;2023-05-14T12:02:37;1.80;;;1.27;;
23270;SDS011;11804;51.118;17.058;2023-05-14T12:05:05;3.17;;;1.25;;
23270;SDS011;11804;51.118;17.058;2023-05-14T12:07:35;3.75;;;1.40;;
23270;SDS011;11804;51.118;17.058;2023-05-14T12:10:05;1.52;;;1.17;;
23270;SDS011;11804;51.118;17.058;2023-05-14T12:12:34;1.17;;;1.07;;
23270;SDS011;11804;51.118;17.058;2023-05-14T12:15:09;1.90;;;1.30;;
23270;SDS011;11804;51.118;17.058;2023-05-14T12:17:38;2.15;;;1.45;;
23270;SDS011;11804;51.118;17.058;2023-05-14T12:20:09;2.25;;;1.55;;
23270;SDS011;11804;51.118;17.058;2023-05-14T12:22:37;1.77;;;1.50;;
23270;SDS011;11804;51.118;17.058;2023-05-14T12:25:10;2.40;;;1.70;;
23270;SDS011;11804;51.118;17.058;2023-05-14T12:27:39;2.58;;;1.30;;
23270;SDS011;11804;51.118;17.058;2023-05-14T12:30:07;2.27;;;1.60;;
23270;SDS011;11804;51.118;17.058;2023-05-14T12:32:36;2.17;;;1.60;;
23270;SDS011;11804;51.118;17.058;2023-05-14T12:35:08;2.12;;;1.50;;
23270;SDS011;11804;51.118;17.058;2023-05-14T12:37:36;2.65;;;1.37;;
23270;SDS011;11804;51.118;17.058;2023-05-14T12:40:06;2.30;;;1.70;;
23270;SDS011;11804;51.118;17.058;2023-05-14T12:42:34;2.00;;;1.47;;
23270;SDS011;11804;51.118;17.058;2023-05-14T12:45:03;2.27;;;1.30;;
23270;SDS011;11804;51.118;17.058;2023-05-14T12:47:33;1.95;;;1.67;;
23270;SDS011;11804;51.118;17.058;2023-05-14T12:50:01;2.12;;;1.40;;
23270;SDS011;11804;51.118;17.058;2023-05-14T12:52:31;1.50;;;1.20;;
23270;SDS011;11804;51.118;17.058;2023-05-14T12:54:58;1.62;;;1.50;;
23270;SDS011;11804;51.118;17.058;2023-05-14T12:57:26;2.55;;;1.80;;
23270;SDS011;11804;51.118;17.058;2023-05-14T12:59:55;2.80;;;1.98;;
23270;SDS011;11804;51.118;17.058;2023-05-14T13:02:23;3.22;;;1.98;;
23270;SDS011;11804;51.118;17.058;2023-05-14T13:04:50;2.20;;;1.72;;
23270;SDS011;11804;51.118;17.058;2023-05-14T13:07:18;3.12;;;1.90;;
23270;SDS011;11804;51.118;17.058;2023-05-14T13:09:46;2.25;;;1.80;;
23270;SDS011;11804;51.118;17.058;2023-05-14T13:12:13;2.67;;;1.90;;
23270;SDS011;11804;51.118;17.058;2023-05-14T13:14:41;3.52;;;1.90;;
23270;SDS011;11804;51.118;17.058;2023-05-14T13:17:08;2.40;;;1.72;;
23270;SDS011;11804;51.118;17.058;2023-05-14T13:19:36;2.25;;;1.87;;
23270;SDS011;11804;51.118;17.058;2023-05-14T13:22:04;2.50;;;1.98;;
23270;SDS011;11804;51.118;17.058;2023-05-14T13:24:32;2.58;;;1.90;;
23270;SDS011;11804;51.118;17.058;2023-05-14T13:27:01;4.50;;;2.35;;
23270;SDS011;11804;51.118;17.058;2023-05-14T13:29:31;2.75;;;2.00;;
23270;SDS011;11804;51.118;17.058;2023-05-14T13:31:59;5.03;;;3.52;;
23270;SDS011;11804;51.118;17.058;2023-05-14T13:34:26;3.52;;;2.00;;
23270;SDS011;11804;51.118;17.058;2023-05-14T13:36:54;2.12;;;1.90;;
23270;SDS011;11804;51.118;17.058;2023-05-14T13:39:22;2.15;;;1.80;;
23270;SDS011;11804;51.118;17.058;2023-05-14T13:41:52;2.62;;;1.60;;
23270;SDS011;11804;51.118;17.058;2023-05-14T13:44:21;3.08;;;2.37;;
23270;SDS011;11804;51.118;17.058;2023-05-14T13:46:49;3.22;;;2.25;;
23270;SDS011;11804;51.118;17.058;2023-05-14T13:49:18;2.25;;;1.67;;
23270;SDS011;11804;51.118;17.058;2023-05-14T13:51:46;2.35;;;2.00;;
23270;SDS011;11804;51.118;17.058;2023-05-14T13:54:13;3.10;;;2.17;;
23270;SDS011;11804;51.118;17.058;2023-05-14T13:56:41;2.85;;;2.20;;
23270;SDS011;11804;51.118;17.058;2023-05-14T13:59:08;3.47;;;2.22;;
23270;SDS011;11804;51.118;17.058;2023-05-14T14:01:36;3.05;;;2.40;;
23270;SDS011;11804;51.118;17.058;2023-05-14T14:04:04;4.35;;;3.00;;
23270;SDS011;11804;51.118;17.058;2023-05-14T14:06:31;4.08;;;3.10;;
23270;SDS011;11804;51.118;17.058;2023-05-14T14:08:59;3.80;;;3.00;;
23270;SDS011;11804;51.118;17.058;2023-05-14T14:11:27;4.53;;;3.22;;
23270;SDS011;11804;51.118;17.058;2023-05-14T14:13:54;3.75;;;2.45;;
23270;SDS011;11804;51.118;17.058;2023-05-14T14:16:22;2.90;;;2.27;;
23270;SDS011;11804;51.118;17.058;2023-05-14T14:18:49;4.08;;;2.72;;
23270;SDS011;11804;51.118;17.058;2023-05-14T14:21:17;3.47;;;2.80;;
23270;SDS011;11804;51.118;17.058;2023-05-14T14:23:45;5.30;;;2.85;;
23270;SDS011;11804;51.118;17.058;2023-05-14T14:26:13;4.30;;;2.98;;
23270;SDS011;11804;51.118;17.058;2023-05-14T14:28:41;5.28;;;3.22;;
23270;SDS011;11804;51.118;17.058;2023-05-14T14:31:09;5.05;;;3.37;;
23270;SDS011;11804;51.118;17.058;2023-05-14T14:33:36;5.22;;;3.77;;
23270;SDS011;11804;51.118;17.058;2023-05-14T14:36:04;5.40;;;3.35;;
23270;SDS011;11804;51.118;17.058;2023-05-14T14:38:32;6.55;;;3.50;;
23270;SDS011;11804;51.118;17.058;2023-05-14T14:41:00;5.42;;;3.58;;
23270;SDS011;11804;51.118;17.058;2023-05-14T14:43:28;4.75;;;3.58;;
23270;SDS011;11804;51.118;17.058;2023-05-14T14:45:56;5.90;;;3.42;;